Time;durP1;ratioP1;P1;durP2;ratioP2;P2;SDS_P1;SDS_P2;PMS_P1;PMS_P2;Temp;Humidity;BMP_temperature;BMP_pressure;BME280_temperature;BME280_humidity;BME280_pressure;Samples;Min_cycle;Max_cycle;Signal;HPM_P1;HPM_P2
2021/01/19 00:00:55;;;;;;;;;;;;;;;-12.31;81.67;99450.89;1645747;85;20221;-67
2021/01/19 00:03:21;;;;;;;;;;;;;;;-12.25;81.66;99448.61;1648000;85;21395;-67
2021/01/19 00:05:48;;;;;;;;;;;;;;;-12.18;81.71;99448.06;1647779;85;20318;-66
2021/01/19 00:08:15;;;;;;;;;;;;;;;-12.09;81.72;99444.19;1644761;86;20202;-66
2021/01/19 00:10:41;;;;;;;;;;;;;;;-12.00;81.69;99442.86;1659287;85;20577;-66
2021/01/19 00:13:08;;;;;;;;;;;;;;;-11.90;81.66;99435.64;1629488;86;20250;-66
2021/01/19 00:15:35;;;;;;;;;;;;;;;-11.80;81.75;99436.42;1636497;86;21862;-66
2021/01/19 00:18:01;;;;;;;;;;;;;;;-11.68;81.83;99425.53;1636111;87;20512;-66
2021/01/19 00:20:29;;;;;;;;;;;;;;;-11.59;81.77;99425.88;1645908;86;20342;-67
2021/01/19 00:22:55;;;;;;;;;;;;;;;-11.47;81.88;99419.56;1647503;85;20611;-66
2021/01/19 00:25:22;;;;;;;;;;;;;;;-11.37;81.88;99422.84;1645682;86;20147;-66
2021/01/19 00:27:49;;;;;;;;;;;;;;;-11.28;81.71;99424.45;1657177;85;21666;-66
2021/01/19 00:30:16;;;;;;;;;;;;;;;-11.23;81.57;99409.06;1635698;86;20308;-66
2021/01/19 00:32:45;;;;;;;;;;;;;;;-11.22;81.47;99411.20;1654185;86;20344;-66
2021/01/19 00:35:12;;;;;;;;;;;;;;;-11.22;81.37;99412.05;1644160;86;20592;-66
2021/01/19 00:37:38;;;;;;;;;;;;;;;-11.22;81.27;99415.84;1635898;86;20571;-66
2021/01/19 00:40:07;;;;;;;;;;;;;;;-11.26;81.19;99410.22;1634933;87;21691;-66
2021/01/19 00:42:33;;;;;;;;;;;;;;;-11.31;81.13;99409.23;1632222;86;20226;-66
2021/01/19 00:45:00;;;;;;;;;;;;;;;-11.38;81.08;99414.84;1626569;87;20339;-67
2021/01/19 00:47:27;;;;;;;;;;;;;;;-11.44;81.07;99408.34;1627866;87;20242;-67
2021/01/19 00:49:54;;;;;;;;;;;;;;;-11.51;81.08;99414.42;1644807;86;20250;-67
2021/01/19 00:52:20;;;;;;;;;;;;;;;-11.58;81.07;99412.47;1618181;88;21623;-66
2021/01/19 00:54:47;;;;;;;;;;;;;;;-11.64;81.00;99409.74;1611716;87;20941;-67
2021/01/19 00:57:14;;;;;;;;;;;;;;;-11.70;81.13;99417.08;1642055;86;20170;-67
2021/01/19 00:59:42;;;;;;;;;;;;;;;-11.75;81.17;99413.53;1640738;86;20271;-66
2021/01/19 01:02:09;;;;;;;;;;;;;;;-11.80;81.26;99399.91;1640124;86;20328;-66
2021/01/19 01:04:35;;;;;;;;;;;;;;;-11.83;81.34;99393.51;1638024;86;21231;-66
2021/01/19 01:07:02;;;;;;;;;;;;;;;-11.82;81.55;99391.43;1641244;86;20242;-66
2021/01/19 01:09:37;;;;;;;;;;;;;;;-11.75;81.83;99385.83;1640351;87;20229;-66
2021/01/19 01:11:57;;;;;;;;;;;;;;;-11.63;82.07;99386.25;1637156;87;20432;-66
2021/01/19 01:14:24;;;;;;;;;;;;;;;-11.50;82.26;99387.16;1636201;87;20522;-66
2021/01/19 01:16:50;;;;;;;;;;;;;;;-11.33;82.34;99380.59;1638220;86;22382;-65
2021/01/19 01:19:17;;;;;;;;;;;;;;;-11.20;82.39;99371.77;1642004;86;20335;-66
2021/01/19 01:21:44;;;;;;;;;;;;;;;-11.05;82.47;99383.23;1640098;86;20570;-66
2021/01/19 01:24:11;;;;;;;;;;;;;;;-10.89;82.53;99374.92;1641832;87;20322;-65
2021/01/19 01:26:37;;;;;;;;;;;;;;;-10.78;82.52;99374.86;1649378;86;20262;-67
2021/01/19 01:29:04;;;;;;;;;;;;;;;-10.65;82.55;99369.37;1649335;87;21196;-66
2021/01/19 01:31:32;;;;;;;;;;;;;;;-10.52;82.60;99367.25;1652820;86;20506;-65
2021/01/19 01:33:59;;;;;;;;;;;;;;;-10.40;82.64;99364.69;1654935;86;20197;-65
2021/01/19 01:36:25;;;;;;;;;;;;;;;-10.30;82.62;99364.58;1649632;85;20555;-65
2021/01/19 01:38:52;;;;;;;;;;;;;;;-10.18;82.63;99359.84;1649949;86;20259;-66
2021/01/19 01:41:21;;;;;;;;;;;;;;;-10.09;82.64;99355.88;1625039;88;21408;-65
2021/01/19 01:43:49;;;;;;;;;;;;;;;-9.99;82.67;99350.30;1638839;87;20282;-65
2021/01/19 01:46:17;;;;;;;;;;;;;;;-9.90;82.69;99350.55;1633889;87;20252;-65
2021/01/19 01:48:47;;;;;;;;;;;;;;;-9.82;82.68;99344.05;1641215;87;20232;-66
2021/01/19 01:51:15;;;;;;;;;;;;;;;-9.74;82.70;99347.64;1637745;86;20596;-67
2021/01/19 01:53:42;;;;;;;;;;;;;;;-9.63;82.70;99347.06;1639443;85;21250;-67
2021/01/19 01:56:10;;;;;;;;;;;;;;;-9.55;82.75;99348.13;1649993;85;20204;-67
2021/01/19 01:58:37;;;;;;;;;;;;;;;-9.49;82.71;99329.36;1630745;88;20298;-66
2021/01/19 02:01:04;;;;;;;;;;;;;;;-9.43;82.64;99329.52;1629291;88;20185;-66
2021/01/19 02:03:31;;;;;;;;;;;;;;;-9.40;82.58;99328.33;1632039;87;20620;-66
2021/01/19 02:05:58;;;;;;;;;;;;;;;-9.36;82.58;99331.37;1631929;86;21676;-67
2021/01/19 02:08:44;;;;;;;;;;;;;;;-9.35;82.62;99334.36;1629924;86;20587;-67
2021/01/19 02:11:31;;;;;;;;;;;;;;;-9.32;82.65;99324.33;1621123;87;20255;-66
2021/01/19 02:14:04;;;;;;;;;;;;;;;-9.29;82.61;99319.76;1620553;87;20184;-67
2021/01/19 02:16:34;;;;;;;;;;;;;;;-9.28;82.61;99313.46;1621900;87;20243;-66
2021/01/19 02:19:10;;;;;;;;;;;;;;;-9.27;82.61;99311.40;1621345;88;21163;-66
2021/01/19 02:21:58;;;;;;;;;;;;;;;-9.26;82.64;99311.84;1623030;87;20318;-67
2021/01/19 02:24:46;;;;;;;;;;;;;;;-9.24;82.71;99312.73;1626930;87;20257;-66
2021/01/19 02:27:19;;;;;;;;;;;;;;;-9.20;82.79;99315.34;1627916;87;20285;-66
2021/01/19 02:30:10;;;;;;;;;;;;;;;-9.11;82.88;99310.50;1867867;76;20232;-67
2021/01/19 02:32:44;;;;;;;;;;;;;;;-9.11;82.92;99302.91;1852262;77;20135;-66
2021/01/19 02:35:14;;;;;;;;;;;;;;;-9.06;82.93;99296.30;1848412;77;22140;-66
2021/01/19 02:38:06;;;;;;;;;;;;;;;-9.02;82.92;99293.01;1858030;77;20260;-66
2021/01/19 02:40:33;;;;;;;;;;;;;;;-8.98;82.96;99291.02;1848960;77;20115;-67
2021/01/19 02:43:23;;;;;;;;;;;;;;;-8.93;82.95;99293.25;1851004;77;20138;-66
2021/01/19 02:45:48;;;;;;;;;;;;;;;-8.89;83.00;99292.49;1838568;77;20228;-67
2021/01/19 02:48:16;;;;;;;;;;;;;;;-8.85;83.04;99286.70;1842304;77;21185;-66
2021/01/19 02:50:43;;;;;;;;;;;;;;;-8.81;83.06;99284.67;1842084;77;21239;-67
2021/01/19 02:53:11;;;;;;;;;;;;;;;-8.76;83.08;99288.97;1854467;77;20223;-66
2021/01/19 02:55:39;;;;;;;;;;;;;;;-8.69;83.13;99284.50;1848730;77;20155;-66
2021/01/19 02:58:24;;;;;;;;;;;;;;;-8.66;83.12;99294.28;1849684;77;20170;-66
2021/01/19 03:01:15;;;;;;;;;;;;;;;-8.63;83.06;99290.97;1846113;77;21643;-67
2021/01/19 03:03:43;;;;;;;;;;;;;;;-8.62;83.04;99286.37;1843960;77;20290;-67
2021/01/19 03:06:18;;;;;;;;;;;;;;;-8.59;83.06;99290.23;1854343;77;20126;-67
2021/01/19 03:08:47;;;;;;;;;;;;;;;-8.58;83.04;99286.86;1849953;77;20141;-67
2021/01/19 03:11:18;;;;;;;;;;;;;;;-8.53;83.10;99294.16;1859435;77;20265;-67
2021/01/19 03:13:47;;;;;;;;;;;;;;;-8.49;83.17;99283.26;1855419;77;21144;-67
2021/01/19 03:16:16;;;;;;;;;;;;;;;-8.43;83.21;99288.48;1842476;77;20204;-67
2021/01/19 03:18:46;;;;;;;;;;;;;;;-8.37;83.26;99280.98;1769677;80;20154;-67
2021/01/19 03:21:13;;;;;;;;;;;;;;;-8.33;83.23;99282.73;1789375;79;20139;-67
2021/01/19 03:23:40;;;;;;;;;;;;;;;-8.28;83.21;99284.53;1794465;79;20420;-67
2021/01/19 03:26:08;;;;;;;;;;;;;;;-8.27;83.14;99278.63;1792100;79;21808;-66
2021/01/19 03:28:35;;;;;;;;;;;;;;;-8.26;83.14;99280.33;1784671;79;20226;-67
2021/01/19 03:31:03;;;;;;;;;;;;;;;-8.28;83.09;99268.07;1776937;80;20506;-67
2021/01/19 03:33:31;;;;;;;;;;;;;;;-8.31;83.02;99269.27;1779074;80;20402;-67
2021/01/19 03:35:58;;;;;;;;;;;;;;;-8.36;83.04;99264.95;1781004;79;20236;-67
2021/01/19 03:38:25;;;;;;;;;;;;;;;-8.39;83.08;99272.52;1774875;80;22742;-66
2021/01/19 03:40:51;;;;;;;;;;;;;;;-8.41;83.10;99261.50;1785757;79;20175;-67
2021/01/19 03:43:18;;;;;;;;;;;;;;;-8.44;83.16;99262.70;1784114;80;20580;-66
2021/01/19 03:45:45;;;;;;;;;;;;;;;-8.45;83.19;99259.73;1773256;80;20147;-66
2021/01/19 03:48:12;;;;;;;;;;;;;;;-8.45;83.19;99262.27;1782276;80;20265;-67
2021/01/19 03:50:39;;;;;;;;;;;;;;;-8.46;83.23;99263.07;1783589;80;21509;-67
2021/01/19 03:53:06;;;;;;;;;;;;;;;-8.45;83.23;99271.55;1772867;80;20221;-66
2021/01/19 03:55:32;;;;;;;;;;;;;;;-8.45;83.27;99272.39;1765519;80;20244;-66
2021/01/19 03:57:59;;;;;;;;;;;;;;;-8.46;83.24;99271.93;1781377;80;20115;-66
2021/01/19 04:00:26;;;;;;;;;;;;;;;-8.46;83.24;99268.13;1781529;79;20250;-67
2021/01/19 04:02:53;;;;;;;;;;;;;;;-8.46;83.25;99268.13;1777191;80;22585;-67
2021/01/19 04:05:19;;;;;;;;;;;;;;;-8.49;83.25;99265.53;1767958;80;20198;-67
2021/01/19 04:07:46;;;;;;;;;;;;;;;-8.50;83.34;99263.84;1788005;80;20488;-66
2021/01/19 04:10:14;;;;;;;;;;;;;;;-8.51;83.33;99265.94;1788551;79;20162;-66
2021/01/19 04:12:42;;;;;;;;;;;;;;;-8.51;83.31;99261.27;1785043;80;20112;-67
2021/01/19 04:15:10;;;;;;;;;;;;;;;-8.50;83.45;99261.31;1781797;79;21331;-67
2021/01/19 04:17:38;;;;;;;;;;;;;;;-8.50;83.46;99265.52;1783030;80;20195;-66
2021/01/19 04:20:07;;;;;;;;;;;;;;;-8.51;83.47;99263.41;1787926;80;20237;-67
2021/01/19 04:22:33;;;;;;;;;;;;;;;-8.50;83.50;99263.84;1768130;79;20142;-66
2021/01/19 04:25:00;;;;;;;;;;;;;;;-8.50;83.52;99258.78;1779866;80;20725;-67
2021/01/19 04:27:27;;;;;;;;;;;;;;;-8.47;83.56;99256.31;1780534;80;21598;-66
2021/01/19 04:29:53;;;;;;;;;;;;;;;-8.46;83.57;99250.41;1779556;79;20124;-66
2021/01/19 04:32:20;;;;;;;;;;;;;;;-8.46;83.47;99250.83;1793849;79;20251;-66
2021/01/19 04:34:47;;;;;;;;;;;;;;;-8.47;83.52;99243.65;1758443;80;20317;-66
2021/01/19 04:37:15;;;;;;;;;;;;;;;-8.47;83.53;99238.59;1784784;80;20606;-66
2021/01/19 04:39:42;;;;;;;;;;;;;;;-8.46;83.57;99237.75;1765368;80;21844;-67
2021/01/19 04:42:11;;;;;;;;;;;;;;;-8.46;83.60;99227.62;1771177;80;20634;-66
2021/01/19 04:44:38;;;;;;;;;;;;;;;-8.43;83.59;99224.30;1768727;80;20195;-67
2021/01/19 04:47:05;;;;;;;;;;;;;;;-8.41;83.64;99210.00;1786779;80;20924;-66
2021/01/19 04:49:32;;;;;;;;;;;;;;;-8.39;83.64;99216.81;1774487;80;20485;-67
2021/01/19 04:52:03;;;;;;;;;;;;;;;-8.39;83.64;99211.75;1781591;80;21653;-67
2021/01/19 04:54:33;;;;;;;;;;;;;;;-8.37;83.63;99210.08;1787473;79;20195;-66
2021/01/19 04:57:02;;;;;;;;;;;;;;;-8.35;83.70;99212.20;1776802;80;20492;-66
2021/01/19 04:59:31;;;;;;;;;;;;;;;-8.33;83.74;99201.70;1779796;79;20615;-67
2021/01/19 05:02:32;;;;;;;;;;;;;;;-8.33;83.74;99186.51;1781876;80;20214;-67
2021/01/19 05:05:18;;;;;;;;;;;;;;;-8.31;83.81;99183.17;1689269;83;21669;-67
2021/01/19 05:08:01;;;;;;;;;;;;;;;-8.30;83.84;99186.14;1675694;84;20338;-66
2021/01/19 05:10:35;;;;;;;;;;;;;;;-8.26;83.89;99181.56;1669934;84;20240;-66
2021/01/19 05:13:13;;;;;;;;;;;;;;;-8.22;83.95;99171.95;1673965;84;20276;-67
2021/01/19 05:15:47;;;;;;;;;;;;;;;-8.19;83.99;99166.52;1673168;84;20231;-67
2021/01/19 05:18:16;;;;;;;;;;;;;;;-8.15;83.93;99167.42;1651998;85;21208;-67
2021/01/19 05:20:46;;;;;;;;;;;;;;;-8.15;83.87;99159.81;1634059;86;20266;-67
2021/01/19 05:23:22;;;;;;;;;;;;;;;-8.17;83.77;99156.42;1639092;87;20241;-67
2021/01/19 05:25:56;;;;;;;;;;;;;;;-8.21;83.73;99152.11;1671465;84;20240;-67
2021/01/19 05:31:20;;;;;;;;;;;;;;;-8.20;83.73;99162.29;1844573;76;20221;-66
2021/01/19 05:33:59;;;;;;;;;;;;;;;-8.25;83.70;99152.89;1793143;78;20633;-66
2021/01/19 05:36:28;;;;;;;;;;;;;;;-8.26;83.66;99156.23;1815057;78;21189;-66
2021/01/19 05:38:57;;;;;;;;;;;;;;;-8.25;83.73;99163.03;1806692;78;20152;-67
2021/01/19 05:41:48;;;;;;;;;;;;;;;-8.25;83.71;99167.67;1814682;78;20202;-66
2021/01/19 05:44:21;;;;;;;;;;;;;;;-8.25;83.78;99164.30;1703158;83;20166;-67
2021/01/19 05:46:50;;;;;;;;;;;;;;;-8.22;83.81;99166.88;1711929;83;20171;-67
2021/01/19 05:49:23;;;;;;;;;;;;;;;-8.20;83.81;99171.57;1713566;83;21396;-66
2021/01/19 05:52:00;;;;;;;;;;;;;;;-8.14;83.82;99167.88;1875776;76;20210;-67
2021/01/19 05:54:30;;;;;;;;;;;;;;;-8.17;83.79;99171.63;1841430;77;20488;-67
2021/01/19 05:57:16;;;;;;;;;;;;;;;-8.17;83.80;99167.83;1851376;77;22163;-66
2021/01/19 05:59:45;;;;;;;;;;;;;;;-8.17;83.81;99171.63;1846390;77;20849;-67
2021/01/19 06:02:16;;;;;;;;;;;;;;;-8.15;83.83;99175.02;1845700;77;20156;-67
2021/01/19 06:04:49;;;;;;;;;;;;;;;-8.12;83.88;99164.97;1846815;77;20161;-67
2021/01/19 06:07:21;;;;;;;;;;;;;;;-8.10;83.88;99165.83;1857491;77;20173;-66
2021/01/19 06:09:51;;;;;;;;;;;;;;;-8.08;83.90;99162.92;1849044;77;21249;-66
2021/01/19 06:12:18;;;;;;;;;;;;;;;-8.04;83.95;99163.41;1815232;78;20566;-68
2021/01/19 06:14:52;;;;;;;;;;;;;;;-8.00;83.97;99161.80;1782921;80;20115;-66
2021/01/19 06:17:21;;;;;;;;;;;;;;;-8.01;83.93;99155.89;1810981;79;20228;-66
2021/01/19 06:19:51;;;;;;;;;;;;;;;-8.01;83.91;99162.22;1793389;79;20244;-67
2021/01/19 06:22:21;;;;;;;;;;;;;;;-7.98;83.98;99151.25;1765963;78;22061;-67
2021/01/19 06:24:49;;;;;;;;;;;;;;;-7.97;84.00;99148.77;1777435;79;20289;-66
2021/01/19 06:27:30;;;;;;;;;;;;;;;-7.96;83.97;99156.80;1822884;78;20237;-66
2021/01/19 06:30:09;;;;;;;;;;;;;;;-7.96;83.99;99151.73;1817672;78;20283;-66
2021/01/19 06:32:42;;;;;;;;;;;;;;;-7.96;83.97;99151.73;1780609;79;20301;-67
2021/01/19 06:35:23;;;;;;;;;;;;;;;-7.96;84.00;99146.66;1793960;78;22097;-68
2021/01/19 06:37:53;;;;;;;;;;;;;;;-7.95;84.09;99155.98;1780608;80;20191;-66
2021/01/19 06:40:25;;;;;;;;;;;;;;;-7.93;84.06;99147.98;1784738;80;20291;-67
2021/01/19 06:43:00;;;;;;;;;;;;;;;-7.92;84.05;99148.44;1772921;79;20238;-66
2021/01/19 06:45:26;;;;;;;;;;;;;;;-7.91;84.01;99151.81;1821062;78;20263;-68
2021/01/19 06:47:56;;;;;;;;;;;;;;;-7.91;83.99;99142.53;1817670;78;21193;-68
2021/01/19 06:50:28;;;;;;;;;;;;;;;-7.88;84.01;99138.78;1818003;78;20687;-68
2021/01/19 06:53:07;;;;;;;;;;;;;;;-7.88;83.97;99138.78;1793067;78;20165;-67
2021/01/19 06:56:10;;;;;;;;;;;;;;;-7.89;83.94;99133.28;1782760;78;20415;-69
2021/01/19 06:58:56;;;;;;;;;;;;;;;-7.91;83.90;99132.39;1813508;78;20494;-68
2021/01/19 07:01:28;;;;;;;;;;;;;;;-7.93;83.91;99128.12;1787228;78;21201;-68
2021/01/19 07:04:18;;;;;;;;;;;;;;;-7.92;83.90;99143.37;1786063;79;20442;-68
2021/01/19 07:07:05;;;;;;;;;;;;;;;-7.91;83.89;99135.34;1778181;79;20264;-67
2021/01/19 07:09:56;;;;;;;;;;;;;;;-7.91;83.88;99132.39;1789530;80;20563;-68
2021/01/19 07:12:24;;;;;;;;;;;;;;;-7.94;83.81;99129.81;1718399;82;20302;-68
2021/01/19 07:15:05;;;;;;;;;;;;;;;-7.97;83.77;99137.36;1711649;82;21265;-68
2021/01/19 07:17:50;;;;;;;;;;;;;;;-7.98;83.79;99133.13;1722158;82;20552;-68
2021/01/19 07:20:31;;;;;;;;;;;;;;;-7.99;83.82;99128.88;1879882;75;20257;-69
2021/01/19 07:23:00;;;;;;;;;;;;;;;-8.02;83.95;99131.36;1841323;75;20149;-68
2021/01/19 07:25:28;;;;;;;;;;;;;;;-7.98;84.03;99130.60;1846861;75;21180;-68
2021/01/19 07:27:56;;;;;;;;;;;;;;;-7.96;84.00;99128.92;1832776;75;20175;-68
2021/01/19 07:30:25;;;;;;;;;;;;;;;-7.91;84.05;99134.92;1848022;77;20592;-68
2021/01/19 07:32:58;;;;;;;;;;;;;;;-7.85;84.08;99125.73;1850236;77;20253;-68
2021/01/19 07:35:30;;;;;;;;;;;;;;;-7.78;84.09;99125.02;1844920;77;20144;-67
2021/01/19 07:37:58;;;;;;;;;;;;;;;-7.72;84.04;99127.64;1840353;75;22540;-68
2021/01/19 07:40:26;;;;;;;;;;;;;;;-7.72;83.94;99123.42;1847425;77;20153;-67
2021/01/19 07:42:53;;;;;;;;;;;;;;;-7.70;83.94;99122.16;1840648;77;20143;-68
2021/01/19 07:45:32;;;;;;;;;;;;;;;-7.67;83.94;99125.63;1847848;77;20580;-69
2021/01/19 07:48:07;;;;;;;;;;;;;;;-7.62;83.97;99121.02;1847485;77;20578;-69
2021/01/19 07:50:43;;;;;;;;;;;;;;;-7.58;83.83;99116.04;1841730;75;21264;-69
2021/01/19 07:53:11;;;;;;;;;;;;;;;-7.56;83.90;99119.46;1835943;75;20490;-68
2021/01/19 07:55:46;;;;;;;;;;;;;;;-7.50;83.93;99117.02;1838637;77;20566;-70
2021/01/19 07:58:19;;;;;;;;;;;;;;;-7.47;83.78;99109.45;1846860;75;20223;-68
2021/01/19 08:00:57;;;;;;;;;;;;;;;-7.45;83.74;99117.94;1829463;77;20477;-68
2021/01/19 08:03:28;;;;;;;;;;;;;;;-7.41;83.77;99117.98;1838856;75;21207;-68
2021/01/19 08:05:55;;;;;;;;;;;;;;;-7.40;83.79;99110.80;1843945;75;20181;-68
2021/01/19 08:08:22;;;;;;;;;;;;;;;-7.36;83.82;99110.03;1837462;75;20198;-68
2021/01/19 08:10:57;;;;;;;;;;;;;;;-7.33;83.86;99112.19;1854290;76;20961;-68
2021/01/19 08:13:25;;;;;;;;;;;;;;;-7.28;83.98;99109.70;1851869;75;20222;-68
2021/01/19 08:16:04;;;;;;;;;;;;;;;-7.23;83.89;99103.86;1849810;76;22194;-68
2021/01/19 08:18:39;;;;;;;;;;;;;;;-7.23;83.79;99103.02;1853101;75;20218;-69
2021/01/19 08:21:10;;;;;;;;;;;;;;;-7.21;83.84;99103.89;1853642;76;20172;-69
2021/01/19 08:23:38;;;;;;;;;;;;;;;-7.20;83.87;99100.52;1848893;75;20211;-68
2021/01/19 08:26:09;;;;;;;;;;;;;;;-7.15;83.91;99081.14;1858795;76;20292;-68
2021/01/19 08:28:37;;;;;;;;;;;;;;;-7.08;83.96;99079.55;1856923;76;21188;-67
2021/01/19 08:31:16;;;;;;;;;;;;;;;-7.00;84.01;99077.55;1851989;75;20301;-68
2021/01/19 08:33:50;;;;;;;;;;;;;;;-6.90;83.96;99078.92;1845726;75;20263;-67
2021/01/19 08:36:15;;;;;;;;;;;;;;;-6.84;83.82;99082.38;1850218;77;20110;-68
2021/01/19 08:39:03;;;;;;;;;;;;;;;-6.77;83.81;99084.17;1832761;77;20216;-68
2021/01/19 08:41:31;;;;;;;;;;;;;;;-6.71;83.80;99075.77;1680798;83;21203;-67
2021/01/19 08:44:04;;;;;;;;;;;;;;;-6.63;83.86;99075.87;1671101;83;20578;-67
2021/01/19 08:46:32;;;;;;;;;;;;;;;-6.55;83.85;99070.03;1679848;83;20379;-68
2021/01/19 08:49:04;;;;;;;;;;;;;;;-6.50;83.74;99083.19;1676384;83;20308;-68
2021/01/19 08:51:31;;;;;;;;;;;;;;;-6.49;83.66;99069.25;1672454;83;20622;-67
2021/01/19 08:54:07;;;;;;;;;;;;;;;-6.45;83.79;99070.13;1675796;83;21213;-67
2021/01/19 08:56:49;;;;;;;;;;;;;;;-6.31;83.71;99074.92;1846761;75;20277;-68
2021/01/19 08:59:17;;;;;;;;;;;;;;;-6.31;83.71;99073.66;1810578;77;20137;-68
2021/01/19 09:01:53;;;;;;;;;;;;;;;-6.26;83.66;99073.28;1812009;78;22168;-68
2021/01/19 09:04:28;;;;;;;;;;;;;;;-6.21;83.73;99074.19;1810739;78;20956;-67
2021/01/19 09:07:28;;;;;;;;;;;;;;;-6.16;83.70;99080.56;1814494;77;20583;-68
2021/01/19 09:09:56;;;;;;;;;;;;;;;-6.13;83.68;99081.47;1806674;78;20549;-68
2021/01/19 09:12:41;;;;;;;;;;;;;;;-6.11;83.69;99087.39;1813535;78;20221;-68
2021/01/19 09:15:08;;;;;;;;;;;;;;;-6.12;83.64;99078.08;1815993;77;22115;-68
2021/01/19 09:17:35;;;;;;;;;;;;;;;-6.11;83.63;99082.31;1812770;78;20509;-69
2021/01/19 09:20:07;;;;;;;;;;;;;;;-6.13;83.70;99076.38;1818018;77;20138;-67
2021/01/19 09:22:34;;;;;;;;;;;;;;;-6.12;83.80;99078.08;1816939;77;20272;-68
2021/01/19 09:25:02;;;;;;;;;;;;;;;-6.06;83.96;99084.91;1808027;78;20560;-68
2021/01/19 09:27:28;;;;;;;;;;;;;;;-5.97;83.95;99073.54;1808758;78;21383;-68
2021/01/19 09:30:08;;;;;;;;;;;;;;;-5.92;83.88;99069.74;1802010;77;20303;-67
2021/01/19 09:32:41;;;;;;;;;;;;;;;-5.84;83.95;99070.66;1808310;77;20518;-67
2021/01/19 09:35:11;;;;;;;;;;;;;;;-5.76;83.99;99071.58;1810167;77;20235;-67
2021/01/19 09:37:46;;;;;;;;;;;;;;;-5.66;83.91;99063.19;1826186;77;20211;-67
2021/01/19 09:40:13;;;;;;;;;;;;;;;-5.67;83.90;99057.65;1814960;77;20480;-67
2021/01/19 09:42:41;;;;;;;;;;;;;;;-5.64;83.89;99056.39;1820334;77;21899;-67
2021/01/19 09:45:11;;;;;;;;;;;;;;;-5.56;84.02;99058.16;1820042;77;20221;-68
2021/01/19 09:47:40;;;;;;;;;;;;;;;-5.49;83.94;99054.80;1822303;77;20223;-67
2021/01/19 09:50:11;;;;;;;;;;;;;;;-5.39;84.01;99057.84;1825267;77;20293;-67
2021/01/19 09:52:41;;;;;;;;;;;;;;;-5.27;83.99;99051.53;1830429;77;20639;-67
2021/01/19 09:55:11;;;;;;;;;;;;;;;-5.17;83.99;99046.94;1812363;77;21195;-68
2021/01/19 09:57:37;;;;;;;;;;;;;;;-5.07;83.88;99041.88;1830861;77;20538;-67
2021/01/19 10:00:07;;;;;;;;;;;;;;;-5.04;83.72;99043.16;1831113;77;20619;-68
2021/01/19 10:02:34;;;;;;;;;;;;;;;-5.01;83.76;99038.11;1829564;77;20266;-68
2021/01/19 10:05:02;;;;;;;;;;;;;;;-4.94;83.92;99034.73;1823386;77;20626;-67
2021/01/19 10:07:29;;;;;;;;;;;;;;;-4.84;83.92;99030.53;1821209;77;21419;-67
2021/01/19 10:10:13;;;;;;;;;;;;;;;-4.76;83.78;99027.16;1814960;77;20243;-68
2021/01/19 10:12:40;;;;;;;;;;;;;;;-4.67;83.75;99033.14;1820886;77;20315;-68
2021/01/19 10:15:09;;;;;;;;;;;;;;;-4.60;83.70;99020.39;1824022;77;20267;-66
2021/01/19 10:17:37;;;;;;;;;;;;;;;-4.54;83.63;99017.02;1828621;77;20305;-68
2021/01/19 10:20:14;;;;;;;;;;;;;;;-4.51;83.67;99014.47;1818908;77;22190;-68
2021/01/19 10:22:43;;;;;;;;;;;;;;;-4.45;83.67;99016.17;1819286;77;20182;-68
2021/01/19 10:25:12;;;;;;;;;;;;;;;-4.42;83.66;99009.41;1819445;77;20202;-68
2021/01/19 10:27:44;;;;;;;;;;;;;;;-4.42;83.61;99001.77;1812477;77;20159;-67
2021/01/19 10:30:12;;;;;;;;;;;;;;;-4.38;83.69;99002.19;1818853;77;20176;-69
2021/01/19 10:32:50;;;;;;;;;;;;;;;-4.30;83.88;98985.20;1815430;77;22163;-68
2021/01/19 10:35:28;;;;;;;;;;;;;;;-4.20;83.78;98989.02;1825418;77;20194;-68
2021/01/19 10:38:00;;;;;;;;;;;;;;;-4.13;83.81;98985.64;1820118;77;20248;-68
2021/01/19 10:40:28;;;;;;;;;;;;;;;-4.01;83.95;98989.45;1831352;77;20252;-68
2021/01/19 10:42:56;;;;;;;;;;;;;;;-3.92;83.82;98972.88;1822694;77;20253;-68
2021/01/19 10:45:26;;;;;;;;;;;;;;;-3.80;83.82;98971.17;1826535;77;21422;-67
2021/01/19 10:47:54;;;;;;;;;;;;;;;-3.70;84.01;98973.67;1829507;77;20183;-68
2021/01/19 10:50:29;;;;;;;;;;;;;;;-3.56;83.85;98971.09;1811746;77;20283;-67
2021/01/19 10:53:00;;;;;;;;;;;;;;;-3.48;83.68;98977.03;1817839;77;20132;-67
2021/01/19 10:55:28;;;;;;;;;;;;;;;-3.46;83.50;98968.95;1815828;77;20156;-67
2021/01/19 10:57:56;;;;;;;;;;;;;;;-3.40;83.65;98967.66;1816328;77;20540;-67
2021/01/19 11:00:26;;;;;;;;;;;;;;;-3.24;83.72;98957.41;1816309;77;20233;-67
2021/01/19 11:02:54;;;;;;;;;;;;;;;-3.06;83.75;98964.13;1823465;77;20148;-67
2021/01/19 11:05:25;;;;;;;;;;;;;;;-2.97;83.62;98959.84;1820895;77;20132;-67
2021/01/19 11:07:53;;;;;;;;;;;;;;;-2.86;83.55;98953.80;1824880;77;20231;-67
2021/01/19 11:10:22;;;;;;;;;;;;;;;-2.78;83.43;98944.39;1817758;77;21184;-69
2021/01/19 11:12:52;;;;;;;;;;;;;;;-2.67;83.52;98937.51;1817145;77;20197;-68
2021/01/19 11:15:19;;;;;;;;;;;;;;;-2.56;83.50;98939.56;1835189;77;20549;-70
2021/01/19 11:17:50;;;;;;;;;;;;;;;-2.44;83.37;98935.22;1817181;77;20298;-68
2021/01/19 11:20:17;;;;;;;;;;;;;;;-2.30;83.51;98934.68;1820997;77;20240;-70
2021/01/19 11:22:46;;;;;;;;;;;;;;;-2.19;83.10;98927.77;1823284;77;21297;-69
2021/01/19 11:25:14;;;;;;;;;;;;;;;-2.18;82.90;98924.80;1823439;77;20586;-69
2021/01/19 11:27:40;;;;;;;;;;;;;;;-2.15;83.08;98918.38;1817297;77;20201;-69
2021/01/19 11:30:08;;;;;;;;;;;;;;;-2.16;82.84;98911.11;1821840;77;20317;-69
2021/01/19 11:32:35;;;;;;;;;;;;;;;-2.21;82.75;98908.17;1818855;77;20248;-69
2021/01/19 11:35:03;;;;;;;;;;;;;;;-2.23;82.94;98907.37;1817591;77;21210;-69
2021/01/19 11:37:29;;;;;;;;;;;;;;;-2.20;83.18;98897.95;1821079;77;20656;-70
2021/01/19 11:39:57;;;;;;;;;;;;;;;-2.15;83.09;98892.38;1816902;77;20148;-68
2021/01/19 11:42:24;;;;;;;;;;;;;;;-2.10;83.15;98890.63;1820997;77;20300;-69
2021/01/19 11:44:53;;;;;;;;;;;;;;;-2.08;83.08;98891.87;1819907;77;20231;-67
2021/01/19 11:47:21;;;;;;;;;;;;;;;-2.08;83.11;98888.87;1814718;77;22157;-68
2021/01/19 11:49:48;;;;;;;;;;;;;;;-2.10;83.04;98876.55;1812620;77;20137;-69
2021/01/19 11:52:18;;;;;;;;;;;;;;;-2.12;83.19;98871.88;1812446;78;20285;-68
2021/01/19 11:54:45;;;;;;;;;;;;;;;-2.13;83.03;98859.96;1819059;77;20311;-68
2021/01/19 11:57:12;;;;;;;;;;;;;;;-2.16;83.19;98865.52;1818981;77;20219;-68
2021/01/19 11:59:43;;;;;;;;;;;;;;;-2.16;83.18;98858.68;1817755;77;21145;-68
2021/01/19 12:02:13;;;;;;;;;;;;;;;-2.23;83.08;98856.22;1821255;77;20174;-69
2021/01/19 12:04:40;;;;;;;;;;;;;;;-2.30;83.29;98850.30;1823596;77;20235;-68
2021/01/19 12:07:07;;;;;;;;;;;;;;;-2.32;83.29;98852.05;1821824;77;20238;-68
2021/01/19 12:09:35;;;;;;;;;;;;;;;-2.31;83.53;98845.62;1824441;77;20145;-68
2021/01/19 12:12:01;;;;;;;;;;;;;;;-2.27;83.58;98840.04;1814872;77;22313;-69
2021/01/19 12:14:28;;;;;;;;;;;;;;;-2.25;83.68;98830.65;1828861;76;20223;-69
2021/01/19 12:16:56;;;;;;;;;;;;;;;-2.24;83.71;98829.81;1831499;77;20262;-67
2021/01/19 12:19:25;;;;;;;;;;;;;;;-2.14;83.94;98828.83;1820206;77;20569;-68
2021/01/19 12:21:54;;;;;;;;;;;;;;;-2.06;83.74;98814.25;1809037;78;20321;-68
2021/01/19 12:24:22;;;;;;;;;;;;;;;-2.05;83.51;98810.82;1819441;77;21151;-67
2021/01/19 12:26:51;;;;;;;;;;;;;;;-2.04;83.56;98813.81;1826485;77;20334;-68
2021/01/19 12:29:19;;;;;;;;;;;;;;;-2.03;83.53;98792.48;1828490;77;20620;-67
2021/01/19 12:31:48;;;;;;;;;;;;;;;-2.06;83.53;98793.79;1831716;77;20225;-68
2021/01/19 12:34:15;;;;;;;;;;;;;;;-2.07;83.50;98797.22;1824591;77;20600;-68
2021/01/19 12:36:42;;;;;;;;;;;;;;;-2.08;83.71;98790.39;1820301;77;21409;-69
2021/01/19 12:39:09;;;;;;;;;;;;;;;-2.02;83.65;98794.59;1814875;77;20229;-68
2021/01/19 12:41:36;;;;;;;;;;;;;;;-2.00;83.69;98790.31;1809974;77;20247;-69
2021/01/19 12:44:04;;;;;;;;;;;;;;;-1.95;83.84;98783.44;1819010;77;20299;-68
2021/01/19 12:46:31;;;;;;;;;;;;;;;-1.90;83.82;98777.84;1821006;77;20223;-68
2021/01/19 12:48:58;;;;;;;;;;;;;;;-1.89;83.81;98773.13;1817409;77;21946;-68
2021/01/19 12:51:25;;;;;;;;;;;;;;;-1.84;83.90;98784.16;1817033;77;20228;-68
2021/01/19 12:53:52;;;;;;;;;;;;;;;-1.77;83.87;98775.95;1829792;77;20319;-68
2021/01/19 12:56:19;;;;;;;;;;;;;;;-1.82;83.67;98777.31;1818430;77;20271;-68
2021/01/19 12:58:47;;;;;;;;;;;;;;;-1.88;83.65;98767.13;1820436;77;20306;-68
2021/01/19 13:01:14;;;;;;;;;;;;;;;-1.90;83.78;98765.48;1818144;77;21283;-68
2021/01/19 13:03:42;;;;;;;;;;;;;;;-1.92;83.71;98764.65;1812298;77;20213;-68
2021/01/19 13:06:09;;;;;;;;;;;;;;;-1.95;83.88;98762.13;1821620;77;20196;-69